sensor_id;sensor_type;location;lat;lon;timestamp;temperature;humidity
326;DHT22;150;52.352;14.058;2023-04-24T00:00:52;13.70;40.40
326;DHT22;150;52.352;14.058;2023-04-24T00:03:21;13.60;40.60
326;DHT22;150;52.352;14.058;2023-04-24T00:05:48;13.60;40.60
326;DHT22;150;52.352;14.058;2023-04-24T00:08:15;13.50;40.80
326;DHT22;150;52.352;14.058;2023-04-24T00:10:41;13.50;40.90
326;DHT22;150;52.352;14.058;2023-04-24T00:13:08;13.50;41.30
326;DHT22;150;52.352;14.058;2023-04-24T00:15:35;13.40;40.80
326;DHT22;150;52.352;14.058;2023-04-24T00:18:03;13.40;40.40
326;DHT22;150;52.352;14.058;2023-04-24T00:20:30;13.40;40.60
326;DHT22;150;52.352;14.058;2023-04-24T00:22:57;13.30;40.60
326;DHT22;150;52.352;14.058;2023-04-24T00:25:24;13.30;40.80
326;DHT22;150;52.352;14.058;2023-04-24T00:27:51;13.30;40.70
326;DHT22;150;52.352;14.058;2023-04-24T00:30:18;13.30;41.30
326;DHT22;150;52.352;14.058;2023-04-24T00:32:45;13.30;41.20
326;DHT22;150;52.352;14.058;2023-04-24T00:35:13;13.20;40.90
326;DHT22;150;52.352;14.058;2023-04-24T00:37:40;13.20;41.50
326;DHT22;150;52.352;14.058;2023-04-24T00:40:08;13.20;41.90
326;DHT22;150;52.352;14.058;2023-04-24T00:42:35;13.20;42.20
326;DHT22;150;52.352;14.058;2023-04-24T00:45:02;13.10;42.70
326;DHT22;150;52.352;14.058;2023-04-24T00:47:29;13.20;42.90
326;DHT22;150;52.352;14.058;2023-04-24T00:49:57;13.20;43.50
326;DHT22;150;52.352;14.058;2023-04-24T00:52:27;13.20;43.80
326;DHT22;150;52.352;14.058;2023-04-24T00:54:56;13.20;43.90
326;DHT22;150;52.352;14.058;2023-04-24T00:57:26;13.20;44.00
326;DHT22;150;52.352;14.058;2023-04-24T00:59:56;13.20;44.10
326;DHT22;150;52.352;14.058;2023-04-24T01:02:29;13.30;43.50
326;DHT22;150;52.352;14.058;2023-04-24T01:05:02;13.30;43.70
326;DHT22;150;52.352;14.058;2023-04-24T01:07:31;13.30;43.80
326;DHT22;150;52.352;14.058;2023-04-24T01:09:58;13.30;43.70
326;DHT22;150;52.352;14.058;2023-04-24T01:12:24;13.30;44.10
326;DHT22;150;52.352;14.058;2023-04-24T01:14:51;13.20;44.60
326;DHT22;150;52.352;14.058;2023-04-24T01:17:18;13.20;45.70
326;DHT22;150;52.352;14.058;2023-04-24T01:19:46;13.20;45.90
326;DHT22;150;52.352;14.058;2023-04-24T01:22:15;13.10;45.80
326;DHT22;150;52.352;14.058;2023-04-24T01:24:43;13.00;46.80
326;DHT22;150;52.352;14.058;2023-04-24T01:27:10;13.00;47.40
326;DHT22;150;52.352;14.058;2023-04-24T01:29:37;13.10;47.90
326;DHT22;150;52.352;14.058;2023-04-24T01:32:07;13.00;47.70
326;DHT22;150;52.352;14.058;2023-04-24T01:34:44;13.00;48.00
326;DHT22;150;52.352;14.058;2023-04-24T01:37:13;12.90;48.10
326;DHT22;150;52.352;14.058;2023-04-24T01:39:42;12.90;48.80
326;DHT22;150;52.352;14.058;2023-04-24T01:42:09;12.90;48.80
326;DHT22;150;52.352;14.058;2023-04-24T01:44:36;13.00;48.40
326;DHT22;150;52.352;14.058;2023-04-24T01:47:05;12.90;48.80
326;DHT22;150;52.352;14.058;2023-04-24T01:49:32;13.00;48.80
326;DHT22;150;52.352;14.058;2023-04-24T01:52:00;13.00;48.50
326;DHT22;150;52.352;14.058;2023-04-24T01:54:28;12.90;48.50
326;DHT22;150;52.352;14.058;2023-04-24T01:56:55;12.90;48.90
326;DHT22;150;52.352;14.058;2023-04-24T01:59:21;12.80;49.10
326;DHT22;150;52.352;14.058;2023-04-24T02:01:51;12.90;49.70
326;DHT22;150;52.352;14.058;2023-04-24T02:04:20;12.90;49.90
326;DHT22;150;52.352;14.058;2023-04-24T02:06:47;12.90;49.30
326;DHT22;150;52.352;14.058;2023-04-24T02:09:16;12.90;49.10
326;DHT22;150;52.352;14.058;2023-04-24T02:11:44;12.80;50.00
326;DHT22;150;52.352;14.058;2023-04-24T02:14:13;12.80;51.10
326;DHT22;150;52.352;14.058;2023-04-24T02:16:40;12.80;50.80
326;DHT22;150;52.352;14.058;2023-04-24T02:19:08;12.80;50.80
326;DHT22;150;52.352;14.058;2023-04-24T02:21:35;12.80;51.00
326;DHT22;150;52.352;14.058;2023-04-24T02:24:02;12.80;51.30
326;DHT22;150;52.352;14.058;2023-04-24T02:26:28;12.90;51.40
326;DHT22;150;52.352;14.058;2023-04-24T02:28:58;12.90;50.90
326;DHT22;150;52.352;14.058;2023-04-24T02:31:25;12.90;51.10
326;DHT22;150;52.352;14.058;2023-04-24T02:33:51;13.00;51.00
326;DHT22;150;52.352;14.058;2023-04-24T02:36:18;13.00;50.80
326;DHT22;150;52.352;14.058;2023-04-24T02:38:48;13.00;50.90
326;DHT22;150;52.352;14.058;2023-04-24T02:41:15;12.90;51.60
326;DHT22;150;52.352;14.058;2023-04-24T02:43:42;13.00;51.80
326;DHT22;150;52.352;14.058;2023-04-24T02:46:10;13.00;51.50
326;DHT22;150;52.352;14.058;2023-04-24T02:48:36;13.00;51.10
326;DHT22;150;52.352;14.058;2023-04-24T02:51:03;13.00;50.90
326;DHT22;150;52.352;14.058;2023-04-24T02:53:30;13.00;50.90
326;DHT22;150;52.352;14.058;2023-04-24T02:55:56;13.10;50.80
326;DHT22;150;52.352;14.058;2023-04-24T02:58:23;13.10;49.80
326;DHT22;150;52.352;14.058;2023-04-24T03:00:53;13.20;49.70
326;DHT22;150;52.352;14.058;2023-04-24T03:03:21;13.20;50.20
326;DHT22;150;52.352;14.058;2023-04-24T03:05:48;13.20;49.90
326;DHT22;150;52.352;14.058;2023-04-24T03:08:14;13.30;49.10
326;DHT22;150;52.352;14.058;2023-04-24T03:10:41;13.40;49.10
326;DHT22;150;52.352;14.058;2023-04-24T03:13:07;13.40;48.80
326;DHT22;150;52.352;14.058;2023-04-24T03:15:34;13.40;49.00
326;DHT22;150;52.352;14.058;2023-04-24T03:18:01;13.50;48.30
326;DHT22;150;52.352;14.058;2023-04-24T03:20:29;13.40;48.60
326;DHT22;150;52.352;14.058;2023-04-24T03:22:56;13.50;49.90
326;DHT22;150;52.352;14.058;2023-04-24T03:25:22;13.40;50.40
326;DHT22;150;52.352;14.058;2023-04-24T03:27:49;13.40;51.20
326;DHT22;150;52.352;14.058;2023-04-24T03:30:16;13.40;51.20
326;DHT22;150;52.352;14.058;2023-04-24T03:32:42;13.50;51.30
326;DHT22;150;52.352;14.058;2023-04-24T03:35:09;13.60;51.10
326;DHT22;150;52.352;14.058;2023-04-24T03:37:37;13.70;50.10
326;DHT22;150;52.352;14.058;2023-04-24T03:40:05;13.70;49.50
326;DHT22;150;52.352;14.058;2023-04-24T03:42:32;13.80;49.70
326;DHT22;150;52.352;14.058;2023-04-24T03:44:59;13.80;49.70
326;DHT22;150;52.352;14.058;2023-04-24T03:47:25;13.90;49.50
326;DHT22;150;52.352;14.058;2023-04-24T03:49:52;13.90;48.40
326;DHT22;150;52.352;14.058;2023-04-24T03:52:19;14.00;48.10
326;DHT22;150;52.352;14.058;2023-04-24T03:54:47;14.10;47.60
326;DHT22;150;52.352;14.058;2023-04-24T03:57:14;14.10;46.70
326;DHT22;150;52.352;14.058;2023-04-24T03:59:44;14.20;46.70
326;DHT22;150;52.352;14.058;2023-04-24T04:02:11;14.30;46.90
326;DHT22;150;52.352;14.058;2023-04-24T04:04:38;14.30;46.80
326;DHT22;150;52.352;14.058;2023-04-24T04:07:04;14.40;46.90
326;DHT22;150;52.352;14.058;2023-04-24T04:09:31;14.50;47.00
326;DHT22;150;52.352;14.058;2023-04-24T04:12:00;14.50;46.60
326;DHT22;150;52.352;14.058;2023-04-24T04:14:27;14.60;46.10
326;DHT22;150;52.352;14.058;2023-04-24T04:16:54;14.70;45.80
326;DHT22;150;52.352;14.058;2023-04-24T04:19:20;14.70;45.30
326;DHT22;150;52.352;14.058;2023-04-24T04:21:47;14.70;45.40
326;DHT22;150;52.352;14.058;2023-04-24T04:24:18;14.70;44.90
326;DHT22;150;52.352;14.058;2023-04-24T04:26:46;14.60;45.60
326;DHT22;150;52.352;14.058;2023-04-24T04:29:14;14.80;45.40
326;DHT22;150;52.352;14.058;2023-04-24T04:31:40;14.80;44.80
326;DHT22;150;52.352;14.058;2023-04-24T04:34:07;14.90;45.20
326;DHT22;150;52.352;14.058;2023-04-24T04:36:34;15.00;44.50
326;DHT22;150;52.352;14.058;2023-04-24T04:39:02;15.10;43.20
326;DHT22;150;52.352;14.058;2023-04-24T04:41:29;15.20;43.40
326;DHT22;150;52.352;14.058;2023-04-24T04:43:56;15.40;43.30
326;DHT22;150;52.352;14.058;2023-04-24T04:46:25;15.50;42.10
326;DHT22;150;52.352;14.058;2023-04-24T04:48:52;15.50;41.70
326;DHT22;150;52.352;14.058;2023-04-24T04:51:19;15.50;41.30
326;DHT22;150;52.352;14.058;2023-04-24T04:53:45;15.50;41.10
326;DHT22;150;52.352;14.058;2023-04-24T04:56:12;15.40;41.00
326;DHT22;150;52.352;14.058;2023-04-24T04:58:39;15.40;41.00
326;DHT22;150;52.352;14.058;2023-04-24T05:01:05;15.40;41.00
326;DHT22;150;52.352;14.058;2023-04-24T05:03:33;15.30;41.20
326;DHT22;150;52.352;14.058;2023-04-24T05:06:01;15.20;41.70
326;DHT22;150;52.352;14.058;2023-04-24T05:08:28;15.20;41.60
326;DHT22;150;52.352;14.058;2023-04-24T05:10:55;15.20;42.20
326;DHT22;150;52.352;14.058;2023-04-24T05:13:21;15.20;42.30
326;DHT22;150;52.352;14.058;2023-04-24T05:15:48;15.30;42.50
326;DHT22;150;52.352;14.058;2023-04-24T05:18:16;15.30;41.70
326;DHT22;150;52.352;14.058;2023-04-24T05:20:44;15.40;42.20
326;DHT22;150;52.352;14.058;2023-04-24T05:23:11;15.50;42.20
326;DHT22;150;52.352;14.058;2023-04-24T05:25:37;15.60;41.20
326;DHT22;150;52.352;14.058;2023-04-24T05:28:05;15.60;41.10
326;DHT22;150;52.352;14.058;2023-04-24T05:30:32;15.40;40.80
326;DHT22;150;52.352;14.058;2023-04-24T05:32:58;15.40;41.40
326;DHT22;150;52.352;14.058;2023-04-24T05:35:25;15.30;41.00
326;DHT22;150;52.352;14.058;2023-04-24T05:37:53;15.20;42.30
326;DHT22;150;52.352;14.058;2023-04-24T05:40:20;15.20;41.90
326;DHT22;150;52.352;14.058;2023-04-24T05:42:46;15.20;42.00
326;DHT22;150;52.352;14.058;2023-04-24T05:45:13;15.10;42.30
326;DHT22;150;52.352;14.058;2023-04-24T05:47:43;15.20;42.50
326;DHT22;150;52.352;14.058;2023-04-24T05:50:10;15.20;42.50
326;DHT22;150;52.352;14.058;2023-04-24T05:52:37;15.10;42.30
326;DHT22;150;52.352;14.058;2023-04-24T05:55:06;15.20;43.10
326;DHT22;150;52.352;14.058;2023-04-24T05:57:33;15.20;42.50
326;DHT22;150;52.352;14.058;2023-04-24T06:00:00;15.30;42.90
326;DHT22;150;52.352;14.058;2023-04-24T06:02:26;15.40;42.10
326;DHT22;150;52.352;14.058;2023-04-24T06:04:57;15.30;42.00
326;DHT22;150;52.352;14.058;2023-04-24T06:07:24;15.30;42.20
326;DHT22;150;52.352;14.058;2023-04-24T06:09:51;15.40;42.00
326;DHT22;150;52.352;14.058;2023-04-24T06:12:19;15.50;41.70
326;DHT22;150;52.352;14.058;2023-04-24T06:14:46;15.40;41.50
326;DHT22;150;52.352;14.058;2023-04-24T06:17:13;15.50;42.30
326;DHT22;150;52.352;14.058;2023-04-24T06:19:39;15.80;41.30
326;DHT22;150;52.352;14.058;2023-04-24T06:22:06;16.00;40.40
326;DHT22;150;52.352;14.058;2023-04-24T06:24:34;16.20;38.80
326;DHT22;150;52.352;14.058;2023-04-24T06:27:00;16.40;38.10
326;DHT22;150;52.352;14.058;2023-04-24T06:29:29;16.60;36.40
326;DHT22;150;52.352;14.058;2023-04-24T06:31:56;16.90;36.50
326;DHT22;150;52.352;14.058;2023-04-24T06:34:22;17.10;34.60
326;DHT22;150;52.352;14.058;2023-04-24T06:36:49;17.40;34.30
326;DHT22;150;52.352;14.058;2023-04-24T06:39:16;17.50;32.00
326;DHT22;150;52.352;14.058;2023-04-24T06:41:42;17.40;32.20
326;DHT22;150;52.352;14.058;2023-04-24T06:44:09;17.70;31.70
326;DHT22;150;52.352;14.058;2023-04-24T06:46:37;18.00;31.20
326;DHT22;150;52.352;14.058;2023-04-24T06:49:04;18.20;29.10
326;DHT22;150;52.352;14.058;2023-04-24T06:51:31;18.20;29.10
326;DHT22;150;52.352;14.058;2023-04-24T06:53:59;18.30;28.70
326;DHT22;150;52.352;14.058;2023-04-24T06:56:26;18.10;28.80
326;DHT22;150;52.352;14.058;2023-04-24T06:58:57;18.20;28.50
326;DHT22;150;52.352;14.058;2023-04-24T07:01:23;18.30;28.80
326;DHT22;150;52.352;14.058;2023-04-24T07:03:57;18.40;28.10
326;DHT22;150;52.352;14.058;2023-04-24T07:06:24;18.40;28.10
326;DHT22;150;52.352;14.058;2023-04-24T07:08:52;18.50;28.10
326;DHT22;150;52.352;14.058;2023-04-24T07:11:20;18.60;27.70
326;DHT22;150;52.352;14.058;2023-04-24T07:13:47;18.70;27.40
326;DHT22;150;52.352;14.058;2023-04-24T07:16:14;18.60;26.50
326;DHT22;150;52.352;14.058;2023-04-24T07:18:40;18.30;26.80
326;DHT22;150;52.352;14.058;2023-04-24T07:21:08;18.20;27.50
326;DHT22;150;52.352;14.058;2023-04-24T07:23:35;18.10;27.40
326;DHT22;150;52.352;14.058;2023-04-24T07:26:03;17.90;27.90
326;DHT22;150;52.352;14.058;2023-04-24T07:28:30;17.70;27.90
326;DHT22;150;52.352;14.058;2023-04-24T07:30:57;17.80;27.90
326;DHT22;150;52.352;14.058;2023-04-24T07:33:28;17.90;27.70
326;DHT22;150;52.352;14.058;2023-04-24T07:35:54;17.90;27.70
326;DHT22;150;52.352;14.058;2023-04-24T07:38:23;18.00;27.20
326;DHT22;150;52.352;14.058;2023-04-24T07:40:54;18.00;27.30
326;DHT22;150;52.352;14.058;2023-04-24T07:43:21;18.00;27.60
326;DHT22;150;52.352;14.058;2023-04-24T07:45:49;17.80;26.80
326;DHT22;150;52.352;14.058;2023-04-24T07:48:16;17.90;27.30
326;DHT22;150;52.352;14.058;2023-04-24T07:50:43;17.70;27.10
326;DHT22;150;52.352;14.058;2023-04-24T07:53:10;17.70;27.80
326;DHT22;150;52.352;14.058;2023-04-24T07:55:38;17.70;28.10
326;DHT22;150;52.352;14.058;2023-04-24T07:58:04;17.80;27.80
326;DHT22;150;52.352;14.058;2023-04-24T08:00:31;18.00;27.70
326;DHT22;150;52.352;14.058;2023-04-24T08:02:58;18.00;27.30
326;DHT22;150;52.352;14.058;2023-04-24T08:05:24;18.20;27.00
326;DHT22;150;52.352;14.058;2023-04-24T08:07:53;18.30;27.40
326;DHT22;150;52.352;14.058;2023-04-24T08:10:20;18.50;26.90
326;DHT22;150;52.352;14.058;2023-04-24T08:12:48;18.70;26.90
326;DHT22;150;52.352;14.058;2023-04-24T08:15:15;18.80;25.70
326;DHT22;150;52.352;14.058;2023-04-24T08:17:42;18.80;25.20
326;DHT22;150;52.352;14.058;2023-04-24T08:20:10;18.70;25.40
326;DHT22;150;52.352;14.058;2023-04-24T08:22:39;18.80;25.70
326;DHT22;150;52.352;14.058;2023-04-24T08:25:06;18.70;25.30
326;DHT22;150;52.352;14.058;2023-04-24T08:27:33;18.90;25.30
326;DHT22;150;52.352;14.058;2023-04-24T08:30:01;19.20;25.40
326;DHT22;150;52.352;14.058;2023-04-24T08:32:28;19.40;24.90
326;DHT22;150;52.352;14.058;2023-04-24T08:34:55;19.60;23.90
326;DHT22;150;52.352;14.058;2023-04-24T08:37:22;19.70;23.50
326;DHT22;150;52.352;14.058;2023-04-24T08:39:49;19.90;23.80
326;DHT22;150;52.352;14.058;2023-04-24T08:42:17;20.40;23.40
326;DHT22;150;52.352;14.058;2023-04-24T08:44:44;20.60;22.00
326;DHT22;150;52.352;14.058;2023-04-24T08:47:12;20.70;21.50
326;DHT22;150;52.352;14.058;2023-04-24T08:49:39;20.80;21.30
326;DHT22;150;52.352;14.058;2023-04-24T08:52:05;21.00;22.30
326;DHT22;150;52.352;14.058;2023-04-24T08:54:34;21.10;20.30
326;DHT22;150;52.352;14.058;2023-04-24T08:57:01;21.10;20.60
326;DHT22;150;52.352;14.058;2023-04-24T08:59:29;21.10;19.80
326;DHT22;150;52.352;14.058;2023-04-24T09:01:56;21.10;19.40
326;DHT22;150;52.352;14.058;2023-04-24T09:04:25;21.10;19.70
326;DHT22;150;52.352;14.058;2023-04-24T09:06:55;21.10;19.60
326;DHT22;150;52.352;14.058;2023-04-24T09:09:22;21.20;19.50
326;DHT22;150;52.352;14.058;2023-04-24T09:11:49;21.30;19.30
326;DHT22;150;52.352;14.058;2023-04-24T09:14:17;21.30;19.50
326;DHT22;150;52.352;14.058;2023-04-24T09:16:43;21.20;19.10
326;DHT22;150;52.352;14.058;2023-04-24T09:19:10;21.10;17.20
326;DHT22;150;52.352;14.058;2023-04-24T09:21:38;20.90;16.30
326;DHT22;150;52.352;14.058;2023-04-24T09:24:14;20.80;16.20
326;DHT22;150;52.352;14.058;2023-04-24T09:26:43;20.60;16.60
326;DHT22;150;52.352;14.058;2023-04-24T09:29:14;20.50;16.00
326;DHT22;150;52.352;14.058;2023-04-24T09:31:42;20.50;17.00
326;DHT22;150;52.352;14.058;2023-04-24T09:34:08;20.50;17.30
326;DHT22;150;52.352;14.058;2023-04-24T09:36:38;20.80;17.20
326;DHT22;150;52.352;14.058;2023-04-24T09:39:05;21.10;15.80
326;DHT22;150;52.352;14.058;2023-04-24T09:41:33;21.30;15.70
326;DHT22;150;52.352;14.058;2023-04-24T09:44:11;21.60;16.30
326;DHT22;150;52.352;14.058;2023-04-24T09:46:38;21.70;14.50
326;DHT22;150;52.352;14.058;2023-04-24T09:49:08;21.90;14.60
326;DHT22;150;52.352;14.058;2023-04-24T09:51:38;21.90;13.80
326;DHT22;150;52.352;14.058;2023-04-24T09:54:13;22.00;14.90
326;DHT22;150;52.352;14.058;2023-04-24T09:56:42;21.70;15.60
326;DHT22;150;52.352;14.058;2023-04-24T09:59:09;21.70;16.20
326;DHT22;150;52.352;14.058;2023-04-24T10:01:36;21.70;16.10
326;DHT22;150;52.352;14.058;2023-04-24T10:04:04;21.70;17.10
326;DHT22;150;52.352;14.058;2023-04-24T10:06:33;21.50;16.30
326;DHT22;150;52.352;14.058;2023-04-24T10:09:02;21.30;17.00
326;DHT22;150;52.352;14.058;2023-04-24T10:11:30;21.10;17.50
326;DHT22;150;52.352;14.058;2023-04-24T10:13:56;20.90;17.90
326;DHT22;150;52.352;14.058;2023-04-24T10:16:24;20.80;18.10
326;DHT22;150;52.352;14.058;2023-04-24T10:18:52;20.60;17.10
326;DHT22;150;52.352;14.058;2023-04-24T10:21:19;20.20;18.10
326;DHT22;150;52.352;14.058;2023-04-24T10:23:48;20.00;18.40
326;DHT22;150;52.352;14.058;2023-04-24T10:26:17;19.70;18.90
326;DHT22;150;52.352;14.058;2023-04-24T10:28:45;19.50;19.40
326;DHT22;150;52.352;14.058;2023-04-24T10:31:12;19.40;20.70
326;DHT22;150;52.352;14.058;2023-04-24T10:33:40;19.30;21.10
326;DHT22;150;52.352;14.058;2023-04-24T10:36:08;19.30;20.70
326;DHT22;150;52.352;14.058;2023-04-24T10:38:37;19.40;21.20
326;DHT22;150;52.352;14.058;2023-04-24T10:41:07;19.40;21.20
326;DHT22;150;52.352;14.058;2023-04-24T10:43:39;19.50;21.20
326;DHT22;150;52.352;14.058;2023-04-24T10:46:06;19.50;21.20
326;DHT22;150;52.352;14.058;2023-04-24T10:48:33;19.50;21.80
326;DHT22;150;52.352;14.058;2023-04-24T10:51:01;19.60;21.00
326;DHT22;150;52.352;14.058;2023-04-24T10:53:29;19.60;21.30
326;DHT22;150;52.352;14.058;2023-04-24T10:55:59;19.50;20.80
326;DHT22;150;52.352;14.058;2023-04-24T10:58:38;19.60;21.30
326;DHT22;150;52.352;14.058;2023-04-24T11:01:06;19.90;21.50
326;DHT22;150;52.352;14.058;2023-04-24T11:03:33;20.10;20.30
326;DHT22;150;52.352;14.058;2023-04-24T11:06:02;20.10;20.30
326;DHT22;150;52.352;14.058;2023-04-24T11:08:31;20.20;19.70
326;DHT22;150;52.352;14.058;2023-04-24T11:11:01;20.10;19.60
326;DHT22;150;52.352;14.058;2023-04-24T11:14:03;20.20;19.80
326;DHT22;150;52.352;14.058;2023-04-24T11:16:32;20.20;19.30
326;DHT22;150;52.352;14.058;2023-04-24T11:19:02;20.10;20.10
326;DHT22;150;52.352;14.058;2023-04-24T11:21:31;20.10;20.60
326;DHT22;150;52.352;14.058;2023-04-24T11:23:58;20.30;20.30
326;DHT22;150;52.352;14.058;2023-04-24T11:26:25;20.50;20.60
326;DHT22;150;52.352;14.058;2023-04-24T11:29:07;20.80;20.20
326;DHT22;150;52.352;14.058;2023-04-24T11:31:35;20.90;19.10
326;DHT22;150;52.352;14.058;2023-04-24T11:34:07;20.80;18.50
326;DHT22;150;52.352;14.058;2023-04-24T11:36:34;20.80;18.70
326;DHT22;150;52.352;14.058;2023-04-24T11:39:02;20.70;18.80
326;DHT22;150;52.352;14.058;2023-04-24T11:41:29;20.30;21.40
326;DHT22;150;52.352;14.058;2023-04-24T11:43:56;20.10;23.40
326;DHT22;150;52.352;14.058;2023-04-24T11:46:27;20.10;25.50
326;DHT22;150;52.352;14.058;2023-04-24T11:48:54;20.00;26.00
326;DHT22;150;52.352;14.058;2023-04-24T11:51:20;20.20;26.10
326;DHT22;150;52.352;14.058;2023-04-24T11:53:48;20.40;24.90
326;DHT22;150;52.352;14.058;2023-04-24T11:56:17;20.40;25.00
326;DHT22;150;52.352;14.058;2023-04-24T11:58:45;20.30;25.00
326;DHT22;150;52.352;14.058;2023-04-24T12:01:12;20.40;24.10
326;DHT22;150;52.352;14.058;2023-04-24T12:03:40;20.50;25.10
326;DHT22;150;52.352;14.058;2023-04-24T12:06:09;20.60;23.40
326;DHT22;150;52.352;14.058;2023-04-24T12:08:37;20.70;23.80
326;DHT22;150;52.352;14.058;2023-04-24T12:11:05;20.70;23.00
326;DHT22;150;52.352;14.058;2023-04-24T12:13:32;20.70;22.10
326;DHT22;150;52.352;14.058;2023-04-24T12:15:59;20.80;20.60
326;DHT22;150;52.352;14.058;2023-04-24T12:18:26;20.80;21.20
326;DHT22;150;52.352;14.058;2023-04-24T12:20:54;20.80;19.50
326;DHT22;150;52.352;14.058;2023-04-24T12:23:33;20.80;20.20
326;DHT22;150;52.352;14.058;2023-04-24T12:26:01;20.50;20.70
326;DHT22;150;52.352;14.058;2023-04-24T12:28:35;20.20;20.60
326;DHT22;150;52.352;14.058;2023-04-24T12:31:02;19.80;21.30
326;DHT22;150;52.352;14.058;2023-04-24T12:33:32;19.40;21.20
326;DHT22;150;52.352;14.058;2023-04-24T12:36:01;19.20;22.30
326;DHT22;150;52.352;14.058;2023-04-24T12:38:28;19.40;22.00
326;DHT22;150;52.352;14.058;2023-04-24T12:41:02;19.80;22.50
326;DHT22;150;52.352;14.058;2023-04-24T12:43:30;20.00;20.60
326;DHT22;150;52.352;14.058;2023-04-24T12:45:57;20.10;20.40
326;DHT22;150;52.352;14.058;2023-04-24T12:48:24;20.20;20.80
326;DHT22;150;52.352;14.058;2023-04-24T12:50:51;20.10;19.50
326;DHT22;150;52.352;14.058;2023-04-24T12:53:19;20.30;19.50
326;DHT22;150;52.352;14.058;2023-04-24T12:55:46;20.30;18.30
326;DHT22;150;52.352;14.058;2023-04-24T12:58:18;20.20;18.00
326;DHT22;150;52.352;14.058;2023-04-24T13:00:45;20.30;18.70
326;DHT22;150;52.352;14.058;2023-04-24T13:03:12;20.30;18.20
326;DHT22;150;52.352;14.058;2023-04-24T13:05:39;20.50;18.40
326;DHT22;150;52.352;14.058;2023-04-24T13:08:05;20.50;18.10
326;DHT22;150;52.352;14.058;2023-04-24T13:10:34;20.40;17.50
326;DHT22;150;52.352;14.058;2023-04-24T13:13:01;20.50;17.90
326;DHT22;150;52.352;14.058;2023-04-24T13:15:27;20.50;18.30
326;DHT22;150;52.352;14.058;2023-04-24T13:17:54;20.40;17.80
326;DHT22;150;52.352;14.058;2023-04-24T13:20:20;20.30;18.10
326;DHT22;150;52.352;14.058;2023-04-24T13:22:47;19.90;17.90
326;DHT22;150;52.352;14.058;2023-04-24T13:25:14;20.00;18.10
326;DHT22;150;52.352;14.058;2023-04-24T13:27:43;20.10;17.90
326;DHT22;150;52.352;14.058;2023-04-24T13:30:11;20.20;17.30
326;DHT22;150;52.352;14.058;2023-04-24T13:32:38;20.30;16.60
326;DHT22;150;52.352;14.058;2023-04-24T13:35:05;20.10;16.20
326;DHT22;150;52.352;14.058;2023-04-24T13:37:32;20.30;16.70
326;DHT22;150;52.352;14.058;2023-04-24T13:39:58;20.50;15.30
326;DHT22;150;52.352;14.058;2023-04-24T13:42:25;20.50;15.20
326;DHT22;150;52.352;14.058;2023-04-24T13:44:53;20.70;14.70
326;DHT22;150;52.352;14.058;2023-04-24T13:47:20;20.70;14.60
326;DHT22;150;52.352;14.058;2023-04-24T13:49:46;20.70;14.30
326;DHT22;150;52.352;14.058;2023-04-24T13:52:13;20.80;14.20
326;DHT22;150;52.352;14.058;2023-04-24T13:54:40;20.70;13.30
326;DHT22;150;52.352;14.058;2023-04-24T13:57:07;20.80;13.80
326;DHT22;150;52.352;14.058;2023-04-24T13:59:33;20.90;13.10
326;DHT22;150;52.352;14.058;2023-04-24T14:02:01;20.90;12.80
326;DHT22;150;52.352;14.058;2023-04-24T14:04:28;21.00;12.10
326;DHT22;150;52.352;14.058;2023-04-24T14:06:55;21.10;12.80
326;DHT22;150;52.352;14.058;2023-04-24T14:09:22;21.10;12.50
326;DHT22;150;52.352;14.058;2023-04-24T14:11:49;21.10;12.60
326;DHT22;150;52.352;14.058;2023-04-24T14:14:15;21.30;12.60
326;DHT22;150;52.352;14.058;2023-04-24T14:16:42;21.30;12.10
326;DHT22;150;52.352;14.058;2023-04-24T14:19:10;21.30;10.60
326;DHT22;150;52.352;14.058;2023-04-24T14:21:36;21.50;11.70
326;DHT22;150;52.352;14.058;2023-04-24T14:24:03;21.60;10.70
326;DHT22;150;52.352;14.058;2023-04-24T14:26:30;21.60;10.80
326;DHT22;150;52.352;14.058;2023-04-24T14:28:57;21.50;10.20
326;DHT22;150;52.352;14.058;2023-04-24T14:31:25;21.60;9.90
326;DHT22;150;52.352;14.058;2023-04-24T14:33:51;21.40;9.50
326;DHT22;150;52.352;14.058;2023-04-24T14:36:19;21.20;9.30
326;DHT22;150;52.352;14.058;2023-04-24T14:38:46;20.90;9.50
326;DHT22;150;52.352;14.058;2023-04-24T14:41:13;20.60;10.00
326;DHT22;150;52.352;14.058;2023-04-24T14:43:39;20.30;10.70
326;DHT22;150;52.352;14.058;2023-04-24T14:46:07;20.20;10.70
326;DHT22;150;52.352;14.058;2023-04-24T14:48:33;19.90;11.20
326;DHT22;150;52.352;14.058;2023-04-24T14:51:00;20.00;11.30
326;DHT22;150;52.352;14.058;2023-04-24T14:53:28;19.90;10.60
326;DHT22;150;52.352;14.058;2023-04-24T14:55:55;19.70;10.40
326;DHT22;150;52.352;14.058;2023-04-24T14:58:22;19.80;11.10
326;DHT22;150;52.352;14.058;2023-04-24T15:00:48;19.80;10.00
326;DHT22;150;52.352;14.058;2023-04-24T15:03:18;19.80;9.00
326;DHT22;150;52.352;14.058;2023-04-24T15:05:45;20.00;8.70
326;DHT22;150;52.352;14.058;2023-04-24T15:08:12;20.30;8.90
326;DHT22;150;52.352;14.058;2023-04-24T15:10:40;20.50;8.70
326;DHT22;150;52.352;14.058;2023-04-24T15:13:07;20.60;7.70
326;DHT22;150;52.352;14.058;2023-04-24T15:15:34;20.50;7.20
326;DHT22;150;52.352;14.058;2023-04-24T15:18:00;20.50;7.40
326;DHT22;150;52.352;14.058;2023-04-24T15:20:27;20.50;7.00
326;DHT22;150;52.352;14.058;2023-04-24T15:22:54;20.40;7.00
326;DHT22;150;52.352;14.058;2023-04-24T15:25:21;20.20;7.70
326;DHT22;150;52.352;14.058;2023-04-24T15:27:48;20.30;7.00
326;DHT22;150;52.352;14.058;2023-04-24T15:30:15;20.20;8.00
326;DHT22;150;52.352;14.058;2023-04-24T15:32:42;20.10;6.70
326;DHT22;150;52.352;14.058;2023-04-24T15:35:09;20.00;7.80
326;DHT22;150;52.352;14.058;2023-04-24T15:37:36;19.80;6.80
326;DHT22;150;52.352;14.058;2023-04-24T15:40:03;19.50;8.20
326;DHT22;150;52.352;14.058;2023-04-24T15:42:32;19.30;8.30
326;DHT22;150;52.352;14.058;2023-04-24T15:45:00;19.30;8.60
326;DHT22;150;52.352;14.058;2023-04-24T15:47:27;19.40;8.70
326;DHT22;150;52.352;14.058;2023-04-24T15:49:53;19.40;8.80
326;DHT22;150;52.352;14.058;2023-04-24T15:52:20;19.50;8.60
326;DHT22;150;52.352;14.058;2023-04-24T15:54:47;19.60;9.30
326;DHT22;150;52.352;14.058;2023-04-24T15:57:13;19.70;8.60
326;DHT22;150;52.352;14.058;2023-04-24T15:59:40;19.60;8.60
326;DHT22;150;52.352;14.058;2023-04-24T16:02:09;19.50;8.50
326;DHT22;150;52.352;14.058;2023-04-24T16:04:37;19.30;8.70
326;DHT22;150;52.352;14.058;2023-04-24T16:07:03;19.20;9.60
326;DHT22;150;52.352;14.058;2023-04-24T16:09:30;19.30;9.40
326;DHT22;150;52.352;14.058;2023-04-24T16:11:56;19.30;8.80
326;DHT22;150;52.352;14.058;2023-04-24T16:14:23;19.40;9.10
326;DHT22;150;52.352;14.058;2023-04-24T16:16:50;19.50;8.70
326;DHT22;150;52.352;14.058;2023-04-24T16:19:18;19.50;7.80
326;DHT22;150;52.352;14.058;2023-04-24T16:21:45;19.50;7.70